sensor_id;sensor_type;location;lat;lon;timestamp;P1;durP1;ratioP1;P2;durP2;ratioP2
25083;SDS011;13075;55.682;37.564;2022-09-03T00:00:12;0.90;;;0.90;;
25083;SDS011;13075;55.682;37.564;2022-09-03T00:02:47;2.70;;;1.10;;
25083;SDS011;13075;55.682;37.564;2022-09-03T00:05:20;2.33;;;1.10;;
25083;SDS011;13075;55.682;37.564;2022-09-03T00:10:28;1.00;;;0.90;;
25083;SDS011;13075;55.682;37.564;2022-09-03T00:13:00;1.35;;;1.10;;
25083;SDS011;13075;55.682;37.564;2022-09-03T00:15:31;3.83;;;1.08;;
25083;SDS011;13075;55.682;37.564;2022-09-03T00:18:05;1.25;;;1.00;;
25083;SDS011;13075;55.682;37.564;2022-09-03T00:20:41;1.88;;;1.27;;
25083;SDS011;13075;55.682;37.564;2022-09-03T00:23:13;3.65;;;1.77;;
25083;SDS011;13075;55.682;37.564;2022-09-03T00:25:54;3.20;;;1.87;;
25083;SDS011;13075;55.682;37.564;2022-09-03T00:28:29;3.60;;;2.40;;
25083;SDS011;13075;55.682;37.564;2022-09-03T00:31:21;4.13;;;2.40;;
25083;SDS011;13075;55.682;37.564;2022-09-03T00:33:54;4.13;;;2.15;;
25083;SDS011;13075;55.682;37.564;2022-09-03T00:36:30;5.20;;;2.22;;
25083;SDS011;13075;55.682;37.564;2022-09-03T00:39:00;2.08;;;1.88;;
25083;SDS011;13075;55.682;37.564;2022-09-03T01:01:34;2.20;;;1.55;;
25083;SDS011;13075;55.682;37.564;2022-09-03T01:18:32;4.63;;;1.75;;
25083;SDS011;13075;55.682;37.564;2022-09-03T01:29:33;3.70;;;1.65;;
25083;SDS011;13075;55.682;37.564;2022-09-03T01:37:23;4.53;;;2.03;;
25083;SDS011;13075;55.682;37.564;2022-09-03T01:40:09;3.10;;;2.38;;
25083;SDS011;13075;55.682;37.564;2022-09-03T01:43:02;2.38;;;1.80;;
25083;SDS011;13075;55.682;37.564;2022-09-03T01:46:06;2.00;;;1.73;;
25083;SDS011;13075;55.682;37.564;2022-09-03T01:59:36;3.78;;;2.97;;
25083;SDS011;13075;55.682;37.564;2022-09-03T02:02:21;7.72;;;2.10;;
25083;SDS011;13075;55.682;37.564;2022-09-03T02:05:03;1.92;;;1.70;;
25083;SDS011;13075;55.682;37.564;2022-09-03T02:07:41;3.90;;;2.20;;
25083;SDS011;13075;55.682;37.564;2022-09-03T02:10:08;2.30;;;1.70;;
25083;SDS011;13075;55.682;37.564;2022-09-03T02:12:37;2.33;;;2.13;;
25083;SDS011;13075;55.682;37.564;2022-09-03T02:15:06;2.85;;;1.73;;
25083;SDS011;13075;55.682;37.564;2022-09-03T02:17:36;1.80;;;1.63;;
25083;SDS011;13075;55.682;37.564;2022-09-03T02:20:05;1.23;;;1.13;;
25083;SDS011;13075;55.682;37.564;2022-09-03T02:22:36;4.72;;;2.25;;
25083;SDS011;13075;55.682;37.564;2022-09-03T02:25:04;3.60;;;1.58;;
25083;SDS011;13075;55.682;37.564;2022-09-03T02:27:30;5.30;;;2.08;;
25083;SDS011;13075;55.682;37.564;2022-09-03T02:29:56;2.20;;;2.00;;
25083;SDS011;13075;55.682;37.564;2022-09-03T02:32:23;3.25;;;2.15;;
25083;SDS011;13075;55.682;37.564;2022-09-03T02:34:48;3.33;;;1.98;;
25083;SDS011;13075;55.682;37.564;2022-09-03T02:37:15;4.82;;;1.83;;
25083;SDS011;13075;55.682;37.564;2022-09-03T02:39:42;5.50;;;1.98;;
25083;SDS011;13075;55.682;37.564;2022-09-03T02:42:09;7.78;;;2.38;;
25083;SDS011;13075;55.682;37.564;2022-09-03T02:44:41;2.30;;;1.85;;
25083;SDS011;13075;55.682;37.564;2022-09-03T02:47:12;5.25;;;2.17;;
25083;SDS011;13075;55.682;37.564;2022-09-03T02:49:39;6.28;;;3.10;;
25083;SDS011;13075;55.682;37.564;2022-09-03T02:52:05;3.33;;;1.90;;
25083;SDS011;13075;55.682;37.564;2022-09-03T02:54:36;2.53;;;1.70;;
25083;SDS011;13075;55.682;37.564;2022-09-03T02:57:06;4.95;;;2.60;;
25083;SDS011;13075;55.682;37.564;2022-09-03T02:59:33;4.47;;;2.47;;
25083;SDS011;13075;55.682;37.564;2022-09-03T03:01:59;5.40;;;2.40;;
25083;SDS011;13075;55.682;37.564;2022-09-03T03:04:25;2.45;;;2.25;;
25083;SDS011;13075;55.682;37.564;2022-09-03T03:06:51;3.20;;;2.17;;
25083;SDS011;13075;55.682;37.564;2022-09-03T03:09:16;2.58;;;2.33;;
25083;SDS011;13075;55.682;37.564;2022-09-03T03:11:42;2.58;;;2.10;;
25083;SDS011;13075;55.682;37.564;2022-09-03T03:14:08;2.42;;;1.73;;
25083;SDS011;13075;55.682;37.564;2022-09-03T03:16:34;3.55;;;2.28;;
25083;SDS011;13075;55.682;37.564;2022-09-03T03:19:00;4.30;;;2.55;;
25083;SDS011;13075;55.682;37.564;2022-09-03T03:21:27;2.08;;;1.70;;
25083;SDS011;13075;55.682;37.564;2022-09-03T03:23:52;3.30;;;1.80;;
25083;SDS011;13075;55.682;37.564;2022-09-03T03:26:19;3.47;;;2.10;;
25083;SDS011;13075;55.682;37.564;2022-09-03T03:28:46;4.50;;;2.08;;
25083;SDS011;13075;55.682;37.564;2022-09-03T03:31:14;10.98;;;1.92;;
25083;SDS011;13075;55.682;37.564;2022-09-03T03:33:41;11.50;;;2.78;;
25083;SDS011;13075;55.682;37.564;2022-09-03T03:36:08;2.40;;;2.20;;
25083;SDS011;13075;55.682;37.564;2022-09-03T03:38:36;4.53;;;2.45;;
25083;SDS011;13075;55.682;37.564;2022-09-03T03:41:09;5.60;;;1.98;;
25083;SDS011;13075;55.682;37.564;2022-09-03T03:43:42;3.00;;;2.28;;
25083;SDS011;13075;55.682;37.564;2022-09-03T03:46:08;4.30;;;2.28;;
25083;SDS011;13075;55.682;37.564;2022-09-03T03:48:35;9.30;;;2.30;;
25083;SDS011;13075;55.682;37.564;2022-09-03T03:51:05;4.65;;;2.03;;
25083;SDS011;13075;55.682;37.564;2022-09-03T03:53:32;5.25;;;2.17;;
25083;SDS011;13075;55.682;37.564;2022-09-03T03:56:00;3.60;;;2.20;;
25083;SDS011;13075;55.682;37.564;2022-09-03T03:58:27;2.67;;;2.22;;
25083;SDS011;13075;55.682;37.564;2022-09-03T04:01:02;5.63;;;2.60;;
25083;SDS011;13075;55.682;37.564;2022-09-03T04:03:31;6.28;;;2.08;;
25083;SDS011;13075;55.682;37.564;2022-09-03T04:05:58;4.65;;;2.75;;
25083;SDS011;13075;55.682;37.564;2022-09-03T04:08:27;5.45;;;2.20;;
25083;SDS011;13075;55.682;37.564;2022-09-03T04:10:53;2.97;;;1.92;;
25083;SDS011;13075;55.682;37.564;2022-09-03T04:13:23;3.17;;;2.50;;
25083;SDS011;13075;55.682;37.564;2022-09-03T04:15:48;9.98;;;3.15;;
25083;SDS011;13075;55.682;37.564;2022-09-03T04:18:14;5.65;;;2.58;;
25083;SDS011;13075;55.682;37.564;2022-09-03T04:20:40;4.60;;;2.40;;
25083;SDS011;13075;55.682;37.564;2022-09-03T04:23:05;4.00;;;2.28;;
25083;SDS011;13075;55.682;37.564;2022-09-03T04:25:31;4.78;;;2.53;;
25083;SDS011;13075;55.682;37.564;2022-09-03T04:27:57;4.85;;;2.35;;
25083;SDS011;13075;55.682;37.564;2022-09-03T04:30:24;6.25;;;2.70;;
25083;SDS011;13075;55.682;37.564;2022-09-03T04:32:49;12.07;;;2.72;;
25083;SDS011;13075;55.682;37.564;2022-09-03T04:35:19;5.10;;;3.03;;
25083;SDS011;13075;55.682;37.564;2022-09-03T04:37:45;3.92;;;2.72;;
25083;SDS011;13075;55.682;37.564;2022-09-03T04:40:11;4.10;;;2.50;;
25083;SDS011;13075;55.682;37.564;2022-09-03T04:42:37;3.58;;;2.33;;
25083;SDS011;13075;55.682;37.564;2022-09-03T04:45:02;2.67;;;2.47;;
25083;SDS011;13075;55.682;37.564;2022-09-03T04:47:28;3.13;;;2.67;;
25083;SDS011;13075;55.682;37.564;2022-09-03T04:49:54;3.47;;;2.35;;
25083;SDS011;13075;55.682;37.564;2022-09-03T04:52:20;3.53;;;2.25;;
25083;SDS011;13075;55.682;37.564;2022-09-03T04:54:45;3.20;;;2.63;;
25083;SDS011;13075;55.682;37.564;2022-09-03T04:57:11;5.07;;;2.47;;
25083;SDS011;13075;55.682;37.564;2022-09-03T04:59:37;5.90;;;2.45;;
25083;SDS011;13075;55.682;37.564;2022-09-03T05:02:05;3.20;;;2.65;;
25083;SDS011;13075;55.682;37.564;2022-09-03T05:04:32;6.05;;;2.63;;
25083;SDS011;13075;55.682;37.564;2022-09-03T05:06:58;6.68;;;2.90;;
25083;SDS011;13075;55.682;37.564;2022-09-03T05:09:23;5.38;;;3.17;;
25083;SDS011;13075;55.682;37.564;2022-09-03T05:11:49;6.57;;;3.58;;
25083;SDS011;13075;55.682;37.564;2022-09-03T05:14:15;5.07;;;2.42;;
25083;SDS011;13075;55.682;37.564;2022-09-03T05:16:40;7.57;;;2.53;;
25083;SDS011;13075;55.682;37.564;2022-09-03T05:19:06;3.08;;;2.50;;
25083;SDS011;13075;55.682;37.564;2022-09-03T05:21:32;7.65;;;2.70;;
25083;SDS011;13075;55.682;37.564;2022-09-03T05:24:02;4.25;;;2.90;;
25083;SDS011;13075;55.682;37.564;2022-09-03T05:26:29;4.45;;;2.33;;
25083;SDS011;13075;55.682;37.564;2022-09-03T05:28:57;7.93;;;2.22;;
25083;SDS011;13075;55.682;37.564;2022-09-03T05:31:25;5.28;;;2.53;;
25083;SDS011;13075;55.682;37.564;2022-09-03T05:33:53;4.88;;;2.25;;
25083;SDS011;13075;55.682;37.564;2022-09-03T05:36:24;3.17;;;2.38;;
25083;SDS011;13075;55.682;37.564;2022-09-03T05:38:51;4.85;;;2.50;;
25083;SDS011;13075;55.682;37.564;2022-09-03T05:41:18;4.78;;;2.45;;
25083;SDS011;13075;55.682;37.564;2022-09-03T05:43:49;6.28;;;2.85;;
25083;SDS011;13075;55.682;37.564;2022-09-03T05:46:19;3.60;;;2.65;;
25083;SDS011;13075;55.682;37.564;2022-09-03T05:48:45;3.47;;;2.58;;
25083;SDS011;13075;55.682;37.564;2022-09-03T05:51:11;3.28;;;2.33;;
25083;SDS011;13075;55.682;37.564;2022-09-03T05:53:42;3.92;;;2.35;;
25083;SDS011;13075;55.682;37.564;2022-09-03T05:56:11;2.75;;;2.50;;
25083;SDS011;13075;55.682;37.564;2022-09-03T05:58:39;4.53;;;2.20;;
25083;SDS011;13075;55.682;37.564;2022-09-03T06:01:14;1.88;;;1.67;;
25083;SDS011;13075;55.682;37.564;2022-09-03T06:03:42;3.80;;;3.45;;
25083;SDS011;13075;55.682;37.564;2022-09-03T06:06:10;4.35;;;2.53;;
25083;SDS011;13075;55.682;37.564;2022-09-03T06:08:38;2.13;;;1.90;;
25083;SDS011;13075;55.682;37.564;2022-09-03T06:11:04;3.00;;;1.73;;
25083;SDS011;13075;55.682;37.564;2022-09-03T06:13:31;2.30;;;1.90;;
25083;SDS011;13075;55.682;37.564;2022-09-03T06:15:58;6.32;;;2.13;;
25083;SDS011;13075;55.682;37.564;2022-09-03T06:18:28;2.85;;;1.75;;
25083;SDS011;13075;55.682;37.564;2022-09-03T06:21:02;2.58;;;1.83;;
25083;SDS011;13075;55.682;37.564;2022-09-03T06:23:30;2.70;;;1.50;;
25083;SDS011;13075;55.682;37.564;2022-09-03T06:26:09;2.92;;;1.67;;
25083;SDS011;13075;55.682;37.564;2022-09-03T06:28:38;3.80;;;1.85;;
25083;SDS011;13075;55.682;37.564;2022-09-03T06:31:08;5.57;;;3.13;;
25083;SDS011;13075;55.682;37.564;2022-09-03T06:33:35;5.65;;;2.05;;
25083;SDS011;13075;55.682;37.564;2022-09-03T06:36:03;2.92;;;2.17;;
25083;SDS011;13075;55.682;37.564;2022-09-03T06:38:30;4.10;;;2.17;;
25083;SDS011;13075;55.682;37.564;2022-09-03T06:41:00;1.95;;;1.58;;
25083;SDS011;13075;55.682;37.564;2022-09-03T06:43:32;2.75;;;1.70;;
25083;SDS011;13075;55.682;37.564;2022-09-03T06:46:04;2.58;;;1.52;;
25083;SDS011;13075;55.682;37.564;2022-09-03T06:48:34;3.90;;;1.35;;
25083;SDS011;13075;55.682;37.564;2022-09-03T06:51:05;2.22;;;1.20;;
25083;SDS011;13075;55.682;37.564;2022-09-03T06:53:37;1.95;;;1.65;;
25083;SDS011;13075;55.682;37.564;2022-09-03T06:56:05;1.65;;;1.15;;
25083;SDS011;13075;55.682;37.564;2022-09-03T06:58:37;3.83;;;1.90;;
25083;SDS011;13075;55.682;37.564;2022-09-03T07:01:17;2.70;;;1.20;;
25083;SDS011;13075;55.682;37.564;2022-09-03T07:03:44;8.10;;;1.83;;
25083;SDS011;13075;55.682;37.564;2022-09-03T07:06:12;1.55;;;1.45;;
25083;SDS011;13075;55.682;37.564;2022-09-03T07:08:43;3.88;;;1.65;;
25083;SDS011;13075;55.682;37.564;2022-09-03T07:11:14;2.42;;;1.13;;
25083;SDS011;13075;55.682;37.564;2022-09-03T07:13:43;1.60;;;1.50;;
25083;SDS011;13075;55.682;37.564;2022-09-03T07:16:10;4.82;;;2.05;;
25083;SDS011;13075;55.682;37.564;2022-09-03T07:18:37;18.45;;;3.97;;
25083;SDS011;13075;55.682;37.564;2022-09-03T07:21:05;3.78;;;1.60;;
25083;SDS011;13075;55.682;37.564;2022-09-03T07:23:32;1.40;;;1.30;;
25083;SDS011;13075;55.682;37.564;2022-09-03T07:26:00;2.35;;;1.33;;
25083;SDS011;13075;55.682;37.564;2022-09-03T07:28:27;1.30;;;1.20;;
25083;SDS011;13075;55.682;37.564;2022-09-03T07:31:00;2.78;;;1.45;;
25083;SDS011;13075;55.682;37.564;2022-09-03T07:33:28;1.20;;;1.02;;
25083;SDS011;13075;55.682;37.564;2022-09-03T07:35:55;4.13;;;1.30;;
25083;SDS011;13075;55.682;37.564;2022-09-03T07:38:25;1.00;;;0.90;;
25083;SDS011;13075;55.682;37.564;2022-09-03T07:40:56;3.67;;;1.00;;
25083;SDS011;13075;55.682;37.564;2022-09-03T07:43:29;2.35;;;1.20;;
25083;SDS011;13075;55.682;37.564;2022-09-03T07:45:59;5.35;;;1.38;;
25083;SDS011;13075;55.682;37.564;2022-09-03T07:48:25;2.15;;;1.20;;
25083;SDS011;13075;55.682;37.564;2022-09-03T07:50:51;3.13;;;0.80;;
25083;SDS011;13075;55.682;37.564;2022-09-03T07:53:17;2.92;;;0.80;;
25083;SDS011;13075;55.682;37.564;2022-09-03T07:55:45;5.50;;;1.20;;
25083;SDS011;13075;55.682;37.564;2022-09-03T07:58:12;1.48;;;1.15;;
25083;SDS011;13075;55.682;37.564;2022-09-03T08:00:38;4.57;;;1.30;;
25083;SDS011;13075;55.682;37.564;2022-09-03T08:03:04;3.50;;;1.02;;
25083;SDS011;13075;55.682;37.564;2022-09-03T08:05:35;2.95;;;1.02;;
25083;SDS011;13075;55.682;37.564;2022-09-03T08:08:02;3.92;;;1.10;;
25083;SDS011;13075;55.682;37.564;2022-09-03T08:10:29;2.20;;;1.27;;
25083;SDS011;13075;55.682;37.564;2022-09-03T08:12:57;1.30;;;1.08;;
25083;SDS011;13075;55.682;37.564;2022-09-03T08:15:23;1.15;;;0.98;;
25083;SDS011;13075;55.682;37.564;2022-09-03T08:17:50;1.92;;;1.20;;
25083;SDS011;13075;55.682;37.564;2022-09-03T08:20:16;2.55;;;0.90;;
25083;SDS011;13075;55.682;37.564;2022-09-03T08:22:42;4.70;;;1.42;;
25083;SDS011;13075;55.682;37.564;2022-09-03T08:25:08;0.80;;;0.80;;
25083;SDS011;13075;55.682;37.564;2022-09-03T08:27:34;3.42;;;1.50;;
25083;SDS011;13075;55.682;37.564;2022-09-03T08:29:59;1.92;;;1.20;;
25083;SDS011;13075;55.682;37.564;2022-09-03T08:32:25;5.55;;;1.20;;
25083;SDS011;13075;55.682;37.564;2022-09-03T08:34:51;2.03;;;1.10;;
25083;SDS011;13075;55.682;37.564;2022-09-03T08:37:17;2.10;;;1.20;;
25083;SDS011;13075;55.682;37.564;2022-09-03T08:39:43;4.10;;;1.23;;
25083;SDS011;13075;55.682;37.564;2022-09-03T08:45:05;1.33;;;1.17;;
25083;SDS011;13075;55.682;37.564;2022-09-03T08:48:15;6.93;;;1.08;;
25083;SDS011;13075;55.682;37.564;2022-09-03T08:50:33;4.80;;;1.30;;
25083;SDS011;13075;55.682;37.564;2022-09-03T08:56:34;1.40;;;1.15;;
25083;SDS011;13075;55.682;37.564;2022-09-03T08:59:02;1.45;;;1.20;;
25083;SDS011;13075;55.682;37.564;2022-09-03T09:01:48;2.60;;;1.20;;
25083;SDS011;13075;55.682;37.564;2022-09-03T09:07:31;3.83;;;1.05;;
25083;SDS011;13075;55.682;37.564;2022-09-03T09:10:14;2.72;;;1.02;;
25083;SDS011;13075;55.682;37.564;2022-09-03T09:13:08;0.82;;;0.82;;
25083;SDS011;13075;55.682;37.564;2022-09-03T09:18:21;1.10;;;0.90;;
25083;SDS011;13075;55.682;37.564;2022-09-03T09:21:06;3.15;;;1.10;;
25083;SDS011;13075;55.682;37.564;2022-09-03T09:23:47;2.20;;;1.05;;
25083;SDS011;13075;55.682;37.564;2022-09-03T09:26:18;1.23;;;1.13;;
25083;SDS011;13075;55.682;37.564;2022-09-03T09:28:59;2.65;;;1.17;;
25083;SDS011;13075;55.682;37.564;2022-09-03T09:31:30;0.90;;;0.85;;
25083;SDS011;13075;55.682;37.564;2022-09-03T09:34:06;1.73;;;0.75;;
25083;SDS011;13075;55.682;37.564;2022-09-03T09:36:36;1.05;;;0.93;;
25083;SDS011;13075;55.682;37.564;2022-09-03T09:39:13;3.42;;;1.35;;
25083;SDS011;13075;55.682;37.564;2022-09-03T09:41:42;7.38;;;1.70;;
25083;SDS011;13075;55.682;37.564;2022-09-03T09:44:20;4.85;;;1.10;;
25083;SDS011;13075;55.682;37.564;2022-09-03T09:46:45;6.18;;;0.73;;
25083;SDS011;13075;55.682;37.564;2022-09-03T09:52:15;3.57;;;0.90;;
25083;SDS011;13075;55.682;37.564;2022-09-03T09:54:42;4.75;;;0.70;;
25083;SDS011;13075;55.682;37.564;2022-09-03T09:57:15;2.90;;;0.88;;
25083;SDS011;13075;55.682;37.564;2022-09-03T10:00:09;1.00;;;0.90;;
25083;SDS011;13075;55.682;37.564;2022-09-03T10:02:47;3.05;;;1.00;;
25083;SDS011;13075;55.682;37.564;2022-09-03T10:05:19;1.23;;;1.08;;
25083;SDS011;13075;55.682;37.564;2022-09-03T10:08:03;2.45;;;1.52;;
25083;SDS011;13075;55.682;37.564;2022-09-03T10:10:47;1.55;;;1.45;;
25083;SDS011;13075;55.682;37.564;2022-09-03T10:13:18;1.52;;;1.45;;
25083;SDS011;13075;55.682;37.564;2022-09-03T10:15:53;4.85;;;0.70;;
25083;SDS011;13075;55.682;37.564;2022-09-03T10:23:48;2.58;;;0.95;;
25083;SDS011;13075;55.682;37.564;2022-09-03T10:26:16;1.35;;;1.10;;
25083;SDS011;13075;55.682;37.564;2022-09-03T10:28:48;3.83;;;1.65;;
25083;SDS011;13075;55.682;37.564;2022-09-03T10:44:43;1.15;;;0.90;;
25083;SDS011;13075;55.682;37.564;2022-09-03T10:50:16;1.50;;;1.08;;
25083;SDS011;13075;55.682;37.564;2022-09-03T10:58:22;0.90;;;0.90;;
25083;SDS011;13075;55.682;37.564;2022-09-03T11:01:51;1.83;;;1.40;;
25083;SDS011;13075;55.682;37.564;2022-09-03T11:06:54;2.53;;;1.23;;
25083;SDS011;13075;55.682;37.564;2022-09-03T11:09:28;5.53;;;0.88;;
25083;SDS011;13075;55.682;37.564;2022-09-03T11:11:59;1.17;;;1.00;;
25083;SDS011;13075;55.682;37.564;2022-09-03T11:14:53;1.20;;;1.10;;
25083;SDS011;13075;55.682;37.564;2022-09-03T11:17:38;3.13;;;1.70;;
25083;SDS011;13075;55.682;37.564;2022-09-03T11:20:13;1.10;;;1.00;;
25083;SDS011;13075;55.682;37.564;2022-09-03T11:22:45;1.70;;;1.15;;
25083;SDS011;13075;55.682;37.564;2022-09-03T11:25:13;1.30;;;0.98;;
25083;SDS011;13075;55.682;37.564;2022-09-03T11:30:23;0.88;;;0.80;;
25083;SDS011;13075;55.682;37.564;2022-09-03T11:33:00;1.27;;;0.90;;
25083;SDS011;13075;55.682;37.564;2022-09-03T11:40:39;6.40;;;1.38;;
25083;SDS011;13075;55.682;37.564;2022-09-03T11:46:12;0.85;;;0.85;;
25083;SDS011;13075;55.682;37.564;2022-09-03T11:48:44;2.65;;;1.00;;
25083;SDS011;13075;55.682;37.564;2022-09-03T11:56:20;1.85;;;1.17;;
25083;SDS011;13075;55.682;37.564;2022-09-03T11:58:45;3.80;;;1.10;;
25083;SDS011;13075;55.682;37.564;2022-09-03T12:01:24;2.50;;;1.27;;
25083;SDS011;13075;55.682;37.564;2022-09-03T12:03:53;1.20;;;1.00;;
25083;SDS011;13075;55.682;37.564;2022-09-03T12:18:12;0.80;;;0.80;;
25083;SDS011;13075;55.682;37.564;2022-09-03T12:20:43;2.58;;;1.10;;
25083;SDS011;13075;55.682;37.564;2022-09-03T12:23:13;2.30;;;0.82;;
25083;SDS011;13075;55.682;37.564;2022-09-03T12:25:55;2.22;;;1.15;;
25083;SDS011;13075;55.682;37.564;2022-09-03T12:28:50;1.13;;;1.02;;
25083;SDS011;13075;55.682;37.564;2022-09-03T12:31:28;0.47;;;0.47;;
25083;SDS011;13075;55.682;37.564;2022-09-03T12:34:30;2.17;;;1.15;;
25083;SDS011;13075;55.682;37.564;2022-09-03T12:36:50;1.13;;;0.80;;
25083;SDS011;13075;55.682;37.564;2022-09-03T12:39:19;0.90;;;0.70;;
25083;SDS011;13075;55.682;37.564;2022-09-03T12:42:11;1.05;;;0.93;;
25083;SDS011;13075;55.682;37.564;2022-09-03T12:44:40;1.42;;;1.02;;
25083;SDS011;13075;55.682;37.564;2022-09-03T12:47:09;1.10;;;0.70;;
25083;SDS011;13075;55.682;37.564;2022-09-03T12:49:37;1.98;;;1.15;;
25083;SDS011;13075;55.682;37.564;2022-09-03T12:54:55;1.30;;;1.13;;
25083;SDS011;13075;55.682;37.564;2022-09-03T12:57:35;1.05;;;0.90;;
25083;SDS011;13075;55.682;37.564;2022-09-03T13:00:06;3.85;;;1.27;;
25083;SDS011;13075;55.682;37.564;2022-09-03T13:02:56;3.97;;;0.68;;
25083;SDS011;13075;55.682;37.564;2022-09-03T13:05:32;2.80;;;1.00;;
25083;SDS011;13075;55.682;37.564;2022-09-03T13:08:00;2.53;;;1.95;;
25083;SDS011;13075;55.682;37.564;2022-09-03T13:10:40;1.95;;;1.05;;
25083;SDS011;13075;55.682;37.564;2022-09-03T13:15:59;3.05;;;0.80;;
25083;SDS011;13075;55.682;37.564;2022-09-03T13:18:45;1.27;;;0.90;;
25083;SDS011;13075;55.682;37.564;2022-09-03T13:21:38;2.38;;;1.00;;
25083;SDS011;13075;55.682;37.564;2022-09-03T13:27:16;6.78;;;1.30;;
25083;SDS011;13075;55.682;37.564;2022-09-03T13:35:16;2.33;;;1.25;;
25083;SDS011;13075;55.682;37.564;2022-09-03T13:42:57;2.40;;;1.95;;
25083;SDS011;13075;55.682;37.564;2022-09-03T13:45:53;1.80;;;0.95;;
25083;SDS011;13075;55.682;37.564;2022-09-03T13:54:18;1.20;;;1.10;;
25083;SDS011;13075;55.682;37.564;2022-09-03T13:59:51;1.63;;;1.45;;
25083;SDS011;13075;55.682;37.564;2022-09-03T14:02:27;2.63;;;1.50;;
25083;SDS011;13075;55.682;37.564;2022-09-03T14:05:22;2.15;;;1.45;;
25083;SDS011;13075;55.682;37.564;2022-09-03T14:08:24;1.15;;;0.95;;
25083;SDS011;13075;55.682;37.564;2022-09-03T14:17:01;1.25;;;1.15;;
25083;SDS011;13075;55.682;37.564;2022-09-03T14:24:50;1.77;;;0.95;;
25083;SDS011;13075;55.682;37.564;2022-09-03T14:27:23;1.60;;;1.10;;
25083;SDS011;13075;55.682;37.564;2022-09-03T14:37:49;6.40;;;1.27;;
25083;SDS011;13075;55.682;37.564;2022-09-03T14:51:11;1.67;;;1.00;;
25083;SDS011;13075;55.682;37.564;2022-09-03T14:53:49;1.27;;;1.17;;
25083;SDS011;13075;55.682;37.564;2022-09-03T15:01:38;1.55;;;0.82;;
25083;SDS011;13075;55.682;37.564;2022-09-03T15:05:04;1.75;;;1.02;;
25083;SDS011;13075;55.682;37.564;2022-09-03T15:12:45;11.77;;;1.95;;
25083;SDS011;13075;55.682;37.564;2022-09-03T15:36:48;1.48;;;1.38;;
25083;SDS011;13075;55.682;37.564;2022-09-03T15:39:22;1.20;;;1.10;;
25083;SDS011;13075;55.682;37.564;2022-09-03T15:44:41;1.60;;;1.50;;
25083;SDS011;13075;55.682;37.564;2022-09-03T15:47:29;6.88;;;1.85;;
25083;SDS011;13075;55.682;37.564;2022-09-03T16:01:43;1.63;;;1.40;;
25083;SDS011;13075;55.682;37.564;2022-09-03T16:04:21;1.95;;;1.75;;
25083;SDS011;13075;55.682;37.564;2022-09-03T16:07:08;1.35;;;1.17;;
25083;SDS011;13075;55.682;37.564;2022-09-03T16:17:53;12.63;;;4.57;;
25083;SDS011;13075;55.682;37.564;2022-09-03T16:20:47;4.57;;;1.67;;
25083;SDS011;13075;55.682;37.564;2022-09-03T16:26:19;3.97;;;1.50;;
25083;SDS011;13075;55.682;37.564;2022-09-03T16:28:47;4.68;;;2.65;;
25083;SDS011;13075;55.682;37.564;2022-09-03T16:34:32;2.47;;;1.70;;
25083;SDS011;13075;55.682;37.564;2022-09-03T16:59:27;7.43;;;3.38;;
25083;SDS011;13075;55.682;37.564;2022-09-03T17:26:46;9.05;;;4.10;;
25083;SDS011;13075;55.682;37.564;2022-09-03T17:42:27;6.30;;;3.55;;
25083;SDS011;13075;55.682;37.564;2022-09-03T17:45:08;9.48;;;3.50;;
25083;SDS011;13075;55.682;37.564;2022-09-03T17:50:30;5.65;;;4.50;;
25083;SDS011;13075;55.682;37.564;2022-09-03T17:53:02;12.27;;;3.78;;
25083;SDS011;13075;55.682;37.564;2022-09-03T17:55:49;8.10;;;4.15;;
25083;SDS011;13075;55.682;37.564;2022-09-03T18:03:52;6.13;;;3.80;;
25083;SDS011;13075;55.682;37.564;2022-09-03T18:06:34;9.10;;;5.07;;
25083;SDS011;13075;55.682;37.564;2022-09-03T18:11:47;8.30;;;3.88;;
25083;SDS011;13075;55.682;37.564;2022-09-03T18:19:33;7.32;;;4.03;;
25083;SDS011;13075;55.682;37.564;2022-09-03T18:22:25;6.18;;;3.58;;
25083;SDS011;13075;55.682;37.564;2022-09-03T18:25:14;6.15;;;3.65;;
25083;SDS011;13075;55.682;37.564;2022-09-03T18:28:02;5.75;;;3.53;;
25083;SDS011;13075;55.682;37.564;2022-09-03T18:30:50;8.10;;;3.20;;
25083;SDS011;13075;55.682;37.564;2022-09-03T18:33:36;8.45;;;3.60;;
25083;SDS011;13075;55.682;37.564;2022-09-03T18:39:13;10.98;;;3.97;;
25083;SDS011;13075;55.682;37.564;2022-09-03T18:42:05;6.00;;;3.67;;
25083;SDS011;13075;55.682;37.564;2022-09-03T18:54:24;10.60;;;6.80;;
25083;SDS011;13075;55.682;37.564;2022-09-03T19:01:10;9.10;;;4.03;;
25083;SDS011;13075;55.682;37.564;2022-09-03T19:16:05;4.88;;;3.13;;
25083;SDS011;13075;55.682;37.564;2022-09-03T19:21:51;10.30;;;3.55;;
25083;SDS011;13075;55.682;37.564;2022-09-03T19:24:42;10.55;;;3.83;;
25083;SDS011;13075;55.682;37.564;2022-09-03T19:30:32;6.05;;;3.50;;
25083;SDS011;13075;55.682;37.564;2022-09-03T19:39:39;9.73;;;3.90;;
25083;SDS011;13075;55.682;37.564;2022-09-03T19:45:45;8.70;;;3.55;;
25083;SDS011;13075;55.682;37.564;2022-09-03T19:49:15;9.73;;;5.28;;
25083;SDS011;13075;55.682;37.564;2022-09-03T19:54:35;15.55;;;4.57;;
25083;SDS011;13075;55.682;37.564;2022-09-03T19:57:20;16.45;;;5.07;;
25083;SDS011;13075;55.682;37.564;2022-09-03T20:00:05;16.58;;;4.28;;
25083;SDS011;13075;55.682;37.564;2022-09-03T20:02:49;17.35;;;5.05;;
25083;SDS011;13075;55.682;37.564;2022-09-03T20:08:19;9.05;;;5.40;;
25083;SDS011;13075;55.682;37.564;2022-09-03T20:11:05;15.00;;;5.60;;
25083;SDS011;13075;55.682;37.564;2022-09-03T20:13:40;7.95;;;4.93;;
25083;SDS011;13075;55.682;37.564;2022-09-03T20:38:06;15.75;;;7.97;;
25083;SDS011;13075;55.682;37.564;2022-09-03T20:52:00;17.13;;;7.70;;
25083;SDS011;13075;55.682;37.564;2022-09-03T20:55:11;17.45;;;8.65;;
25083;SDS011;13075;55.682;37.564;2022-09-03T20:57:41;17.33;;;8.45;;
25083;SDS011;13075;55.682;37.564;2022-09-03T21:00:16;16.42;;;9.65;;
25083;SDS011;13075;55.682;37.564;2022-09-03T21:11:14;18.70;;;8.88;;
25083;SDS011;13075;55.682;37.564;2022-09-03T21:13:54;24.25;;;9.50;;
25083;SDS011;13075;55.682;37.564;2022-09-03T21:24:40;24.80;;;9.85;;
25083;SDS011;13075;55.682;37.564;2022-09-03T21:27:18;22.88;;;11.50;;
25083;SDS011;13075;55.682;37.564;2022-09-03T21:37:40;24.67;;;9.77;;
25083;SDS011;13075;55.682;37.564;2022-09-03T21:40:15;22.40;;;9.82;;
25083;SDS011;13075;55.682;37.564;2022-09-03T21:43:00;20.02;;;8.68;;
25083;SDS011;13075;55.682;37.564;2022-09-03T21:45:39;35.17;;;13.02;;
25083;SDS011;13075;55.682;37.564;2022-09-03T21:48:11;31.38;;;11.27;;
25083;SDS011;13075;55.682;37.564;2022-09-03T21:51:02;28.77;;;11.27;;
25083;SDS011;13075;55.682;37.564;2022-09-03T21:59:29;18.17;;;8.75;;
25083;SDS011;13075;55.682;37.564;2022-09-03T22:02:26;17.23;;;9.55;;
25083;SDS011;13075;55.682;37.564;2022-09-03T22:04:55;16.90;;;8.07;;
25083;SDS011;13075;55.682;37.564;2022-09-03T22:07:45;18.35;;;9.27;;
25083;SDS011;13075;55.682;37.564;2022-09-03T22:13:27;11.48;;;7.18;;
25083;SDS011;13075;55.682;37.564;2022-09-03T22:16:20;14.23;;;6.90;;
25083;SDS011;13075;55.682;37.564;2022-09-03T22:18:54;16.45;;;7.18;;
25083;SDS011;13075;55.682;37.564;2022-09-03T22:21:28;18.60;;;7.03;;
25083;SDS011;13075;55.682;37.564;2022-09-03T22:32:10;9.68;;;5.85;;
25083;SDS011;13075;55.682;37.564;2022-09-03T22:40:14;6.55;;;4.68;;
25083;SDS011;13075;55.682;37.564;2022-09-03T22:48:12;11.70;;;6.50;;
25083;SDS011;13075;55.682;37.564;2022-09-03T23:01:32;8.35;;;4.63;;
25083;SDS011;13075;55.682;37.564;2022-09-03T23:04:26;10.60;;;4.40;;
25083;SDS011;13075;55.682;37.564;2022-09-03T23:07:00;6.72;;;4.00;;